sensor_id;sensor_type;location;lat;lon;timestamp;temperature;humidity
7216;DHT22;3649;48.798;9.798;2022-07-09T00:01:03;19.40;99.90
7216;DHT22;3649;48.798;9.798;2022-07-09T00:03:30;19.40;99.90
7216;DHT22;3649;48.798;9.798;2022-07-09T00:05:57;19.40;99.90
7216;DHT22;3649;48.798;9.798;2022-07-09T00:08:24;19.40;99.90
7216;DHT22;3649;48.798;9.798;2022-07-09T00:10:51;19.40;99.90
7216;DHT22;3649;48.798;9.798;2022-07-09T00:13:18;19.30;99.90
7216;DHT22;3649;48.798;9.798;2022-07-09T00:15:45;19.20;99.90
7216;DHT22;3649;48.798;9.798;2022-07-09T00:18:12;19.10;99.90
7216;DHT22;3649;48.798;9.798;2022-07-09T00:20:39;19.10;99.90
7216;DHT22;3649;48.798;9.798;2022-07-09T00:23:05;19.10;99.90
7216;DHT22;3649;48.798;9.798;2022-07-09T00:25:32;19.20;99.90
7216;DHT22;3649;48.798;9.798;2022-07-09T00:27:59;19.20;99.90
7216;DHT22;3649;48.798;9.798;2022-07-09T00:30:26;19.40;99.90
7216;DHT22;3649;48.798;9.798;2022-07-09T00:32:53;19.40;99.90
7216;DHT22;3649;48.798;9.798;2022-07-09T00:35:20;19.40;99.90
7216;DHT22;3649;48.798;9.798;2022-07-09T00:37:47;19.20;99.90
7216;DHT22;3649;48.798;9.798;2022-07-09T00:40:14;19.20;99.90
7216;DHT22;3649;48.798;9.798;2022-07-09T00:42:41;19.20;99.90
7216;DHT22;3649;48.798;9.798;2022-07-09T00:45:08;19.20;99.90
7216;DHT22;3649;48.798;9.798;2022-07-09T00:47:35;19.30;99.90
7216;DHT22;3649;48.798;9.798;2022-07-09T00:50:02;19.30;99.90
7216;DHT22;3649;48.798;9.798;2022-07-09T00:52:31;19.30;99.90
7216;DHT22;3649;48.798;9.798;2022-07-09T00:55:00;19.40;99.90
7216;DHT22;3649;48.798;9.798;2022-07-09T00:57:28;19.40;99.90
7216;DHT22;3649;48.798;9.798;2022-07-09T00:59:57;19.30;99.90
7216;DHT22;3649;48.798;9.798;2022-07-09T01:02:24;19.10;99.90
7216;DHT22;3649;48.798;9.798;2022-07-09T01:04:51;19.10;99.90
7216;DHT22;3649;48.798;9.798;2022-07-09T01:07:18;19.00;99.90
7216;DHT22;3649;48.798;9.798;2022-07-09T01:09:45;19.00;99.90
7216;DHT22;3649;48.798;9.798;2022-07-09T01:12:12;18.90;99.90
7216;DHT22;3649;48.798;9.798;2022-07-09T01:14:40;18.90;99.90
7216;DHT22;3649;48.798;9.798;2022-07-09T01:17:06;18.80;99.90
7216;DHT22;3649;48.798;9.798;2022-07-09T01:19:34;18.70;99.90
7216;DHT22;3649;48.798;9.798;2022-07-09T01:22:02;18.60;99.90
7216;DHT22;3649;48.798;9.798;2022-07-09T01:24:33;18.70;99.90
7216;DHT22;3649;48.798;9.798;2022-07-09T01:27:00;18.60;99.90
7216;DHT22;3649;48.798;9.798;2022-07-09T01:29:27;18.60;99.90
7216;DHT22;3649;48.798;9.798;2022-07-09T01:31:54;18.60;99.90
7216;DHT22;3649;48.798;9.798;2022-07-09T01:34:21;18.60;99.90
7216;DHT22;3649;48.798;9.798;2022-07-09T01:36:48;18.60;99.90
7216;DHT22;3649;48.798;9.798;2022-07-09T01:39:15;18.50;99.90
7216;DHT22;3649;48.798;9.798;2022-07-09T01:41:42;18.50;99.90
7216;DHT22;3649;48.798;9.798;2022-07-09T01:44:09;18.50;99.90
7216;DHT22;3649;48.798;9.798;2022-07-09T01:46:36;18.50;99.90
7216;DHT22;3649;48.798;9.798;2022-07-09T01:49:04;18.50;99.90
7216;DHT22;3649;48.798;9.798;2022-07-09T01:51:33;18.40;99.90
7216;DHT22;3649;48.798;9.798;2022-07-09T01:54:02;18.40;99.90
7216;DHT22;3649;48.798;9.798;2022-07-09T01:56:29;18.40;99.90
7216;DHT22;3649;48.798;9.798;2022-07-09T01:58:56;18.40;99.90
7216;DHT22;3649;48.798;9.798;2022-07-09T02:01:23;18.30;99.90
7216;DHT22;3649;48.798;9.798;2022-07-09T02:03:50;18.40;99.90
7216;DHT22;3649;48.798;9.798;2022-07-09T02:06:16;18.30;99.90
7216;DHT22;3649;48.798;9.798;2022-07-09T02:08:43;18.30;99.90
7216;DHT22;3649;48.798;9.798;2022-07-09T02:11:10;18.20;99.90
7216;DHT22;3649;48.798;9.798;2022-07-09T02:13:37;18.20;99.90
7216;DHT22;3649;48.798;9.798;2022-07-09T02:16:04;18.20;99.90
7216;DHT22;3649;48.798;9.798;2022-07-09T02:18:31;18.20;99.90
7216;DHT22;3649;48.798;9.798;2022-07-09T02:20:59;18.10;99.90
7216;DHT22;3649;48.798;9.798;2022-07-09T02:23:26;18.20;99.90
7216;DHT22;3649;48.798;9.798;2022-07-09T02:25:53;18.20;99.90
7216;DHT22;3649;48.798;9.798;2022-07-09T02:28:19;18.10;99.90
7216;DHT22;3649;48.798;9.798;2022-07-09T02:30:46;18.20;99.90
7216;DHT22;3649;48.798;9.798;2022-07-09T02:33:13;18.10;99.90
7216;DHT22;3649;48.798;9.798;2022-07-09T02:35:40;18.10;99.90
7216;DHT22;3649;48.798;9.798;2022-07-09T02:38:07;18.10;99.90
7216;DHT22;3649;48.798;9.798;2022-07-09T02:40:34;18.10;99.90
7216;DHT22;3649;48.798;9.798;2022-07-09T02:43:01;18.10;99.90
7216;DHT22;3649;48.798;9.798;2022-07-09T02:45:28;18.10;99.90
7216;DHT22;3649;48.798;9.798;2022-07-09T02:47:55;18.00;99.90
7216;DHT22;3649;48.798;9.798;2022-07-09T02:50:22;18.00;99.90
7216;DHT22;3649;48.798;9.798;2022-07-09T02:52:49;18.00;99.90
7216;DHT22;3649;48.798;9.798;2022-07-09T02:55:15;18.00;99.90
7216;DHT22;3649;48.798;9.798;2022-07-09T02:57:42;18.10;99.90
7216;DHT22;3649;48.798;9.798;2022-07-09T03:00:09;18.10;99.90
7216;DHT22;3649;48.798;9.798;2022-07-09T03:02:36;18.00;99.90
7216;DHT22;3649;48.798;9.798;2022-07-09T03:05:04;18.00;99.90
7216;DHT22;3649;48.798;9.798;2022-07-09T03:07:31;18.00;99.90
7216;DHT22;3649;48.798;9.798;2022-07-09T03:09:58;18.10;99.90
7216;DHT22;3649;48.798;9.798;2022-07-09T03:12:25;18.00;99.90
7216;DHT22;3649;48.798;9.798;2022-07-09T03:14:51;17.90;99.90
7216;DHT22;3649;48.798;9.798;2022-07-09T03:17:18;17.90;99.90
7216;DHT22;3649;48.798;9.798;2022-07-09T03:19:45;17.90;99.90
7216;DHT22;3649;48.798;9.798;2022-07-09T03:22:12;17.90;99.90
7216;DHT22;3649;48.798;9.798;2022-07-09T03:24:39;17.90;99.90
7216;DHT22;3649;48.798;9.798;2022-07-09T03:27:06;17.90;99.90
7216;DHT22;3649;48.798;9.798;2022-07-09T03:29:32;17.90;99.90
7216;DHT22;3649;48.798;9.798;2022-07-09T03:31:59;17.90;99.90
7216;DHT22;3649;48.798;9.798;2022-07-09T03:34:27;17.80;99.90
7216;DHT22;3649;48.798;9.798;2022-07-09T03:36:54;17.80;99.90
7216;DHT22;3649;48.798;9.798;2022-07-09T03:39:21;17.80;99.90
7216;DHT22;3649;48.798;9.798;2022-07-09T03:41:48;17.80;99.90
7216;DHT22;3649;48.798;9.798;2022-07-09T03:44:14;17.70;99.90
7216;DHT22;3649;48.798;9.798;2022-07-09T03:46:41;17.70;99.90
7216;DHT22;3649;48.798;9.798;2022-07-09T03:49:08;17.70;99.90
7216;DHT22;3649;48.798;9.798;2022-07-09T03:51:35;17.70;99.90
7216;DHT22;3649;48.798;9.798;2022-07-09T03:54:03;17.70;99.90
7216;DHT22;3649;48.798;9.798;2022-07-09T03:56:29;17.70;99.90
7216;DHT22;3649;48.798;9.798;2022-07-09T03:58:56;17.70;99.90
7216;DHT22;3649;48.798;9.798;2022-07-09T04:01:23;17.70;99.90
7216;DHT22;3649;48.798;9.798;2022-07-09T04:03:50;17.70;99.90
7216;DHT22;3649;48.798;9.798;2022-07-09T04:06:17;17.60;99.90
7216;DHT22;3649;48.798;9.798;2022-07-09T04:08:44;17.60;99.90
7216;DHT22;3649;48.798;9.798;2022-07-09T04:11:11;17.60;99.90
7216;DHT22;3649;48.798;9.798;2022-07-09T04:13:38;17.60;99.90
7216;DHT22;3649;48.798;9.798;2022-07-09T04:16:05;17.60;99.90
7216;DHT22;3649;48.798;9.798;2022-07-09T04:18:33;17.50;99.90
7216;DHT22;3649;48.798;9.798;2022-07-09T04:21:00;17.50;99.90
7216;DHT22;3649;48.798;9.798;2022-07-09T04:23:27;17.50;99.90
7216;DHT22;3649;48.798;9.798;2022-07-09T04:25:54;17.50;99.90
7216;DHT22;3649;48.798;9.798;2022-07-09T04:28:22;17.50;99.90
7216;DHT22;3649;48.798;9.798;2022-07-09T04:30:49;17.50;99.90
7216;DHT22;3649;48.798;9.798;2022-07-09T04:33:16;17.50;99.90
7216;DHT22;3649;48.798;9.798;2022-07-09T04:35:42;17.60;99.90
7216;DHT22;3649;48.798;9.798;2022-07-09T04:38:11;17.60;99.90
7216;DHT22;3649;48.798;9.798;2022-07-09T04:40:39;17.60;99.90
7216;DHT22;3649;48.798;9.798;2022-07-09T04:43:07;17.60;99.90
7216;DHT22;3649;48.798;9.798;2022-07-09T04:45:34;17.60;99.90
7216;DHT22;3649;48.798;9.798;2022-07-09T04:48:01;17.60;99.90
7216;DHT22;3649;48.798;9.798;2022-07-09T04:50:27;17.70;99.90
7216;DHT22;3649;48.798;9.798;2022-07-09T04:52:54;17.90;99.90
7216;DHT22;3649;48.798;9.798;2022-07-09T04:55:21;17.90;99.90
7216;DHT22;3649;48.798;9.798;2022-07-09T04:57:48;18.00;99.90
7216;DHT22;3649;48.798;9.798;2022-07-09T05:00:16;18.10;99.90
7216;DHT22;3649;48.798;9.798;2022-07-09T05:02:44;18.20;99.90
7216;DHT22;3649;48.798;9.798;2022-07-09T05:05:11;18.20;99.90
7216;DHT22;3649;48.798;9.798;2022-07-09T05:07:40;18.20;99.90
7216;DHT22;3649;48.798;9.798;2022-07-09T05:10:10;18.30;99.90
7216;DHT22;3649;48.798;9.798;2022-07-09T05:12:37;18.40;99.90
7216;DHT22;3649;48.798;9.798;2022-07-09T05:15:04;18.40;99.90
7216;DHT22;3649;48.798;9.798;2022-07-09T05:17:35;18.40;99.90
7216;DHT22;3649;48.798;9.798;2022-07-09T05:20:04;18.40;99.90
7216;DHT22;3649;48.798;9.798;2022-07-09T05:22:32;18.30;99.90
7216;DHT22;3649;48.798;9.798;2022-07-09T05:24:59;18.40;99.90
7216;DHT22;3649;48.798;9.798;2022-07-09T05:27:27;18.40;99.90
7216;DHT22;3649;48.798;9.798;2022-07-09T05:29:54;18.40;99.90
7216;DHT22;3649;48.798;9.798;2022-07-09T05:32:21;18.60;99.90
7216;DHT22;3649;48.798;9.798;2022-07-09T05:34:49;18.60;99.90
7216;DHT22;3649;48.798;9.798;2022-07-09T05:37:16;18.60;99.90
7216;DHT22;3649;48.798;9.798;2022-07-09T05:39:42;18.60;99.90
7216;DHT22;3649;48.798;9.798;2022-07-09T05:42:10;18.60;99.90
7216;DHT22;3649;48.798;9.798;2022-07-09T05:44:37;18.60;99.90
7216;DHT22;3649;48.798;9.798;2022-07-09T05:47:04;18.60;99.90
7216;DHT22;3649;48.798;9.798;2022-07-09T05:49:31;18.80;99.90
7216;DHT22;3649;48.798;9.798;2022-07-09T05:51:58;18.90;99.90
7216;DHT22;3649;48.798;9.798;2022-07-09T05:54:25;19.00;99.90
7216;DHT22;3649;48.798;9.798;2022-07-09T05:56:52;19.10;99.90
7216;DHT22;3649;48.798;9.798;2022-07-09T05:59:18;19.10;99.90
7216;DHT22;3649;48.798;9.798;2022-07-09T06:01:45;19.20;99.90
7216;DHT22;3649;48.798;9.798;2022-07-09T06:04:12;19.20;99.90
7216;DHT22;3649;48.798;9.798;2022-07-09T06:06:40;19.20;99.90
7216;DHT22;3649;48.798;9.798;2022-07-09T06:09:07;19.30;99.90
7216;DHT22;3649;48.798;9.798;2022-07-09T06:11:33;19.40;99.90
7216;DHT22;3649;48.798;9.798;2022-07-09T06:14:01;19.50;99.90
7216;DHT22;3649;48.798;9.798;2022-07-09T06:16:28;19.60;99.90
7216;DHT22;3649;48.798;9.798;2022-07-09T06:18:54;19.70;99.90
7216;DHT22;3649;48.798;9.798;2022-07-09T06:21:21;19.70;99.90
7216;DHT22;3649;48.798;9.798;2022-07-09T06:23:48;19.80;99.90
7216;DHT22;3649;48.798;9.798;2022-07-09T06:26:15;19.90;99.90
7216;DHT22;3649;48.798;9.798;2022-07-09T06:28:42;19.90;99.90
7216;DHT22;3649;48.798;9.798;2022-07-09T06:31:09;20.00;99.90
7216;DHT22;3649;48.798;9.798;2022-07-09T06:33:36;20.00;99.90
7216;DHT22;3649;48.798;9.798;2022-07-09T06:36:03;20.10;99.90
7216;DHT22;3649;48.798;9.798;2022-07-09T06:38:30;20.20;99.90
7216;DHT22;3649;48.798;9.798;2022-07-09T06:40:57;20.30;99.90
7216;DHT22;3649;48.798;9.798;2022-07-09T06:43:24;20.40;99.90
7216;DHT22;3649;48.798;9.798;2022-07-09T06:45:51;20.60;99.90
7216;DHT22;3649;48.798;9.798;2022-07-09T06:48:20;20.60;99.90
7216;DHT22;3649;48.798;9.798;2022-07-09T06:50:47;20.70;99.90
7216;DHT22;3649;48.798;9.798;2022-07-09T06:53:13;20.90;99.90
7216;DHT22;3649;48.798;9.798;2022-07-09T06:55:41;21.00;99.70
7216;DHT22;3649;48.798;9.798;2022-07-09T06:58:08;21.30;99.60
7216;DHT22;3649;48.798;9.798;2022-07-09T07:00:34;21.50;99.40
7216;DHT22;3649;48.798;9.798;2022-07-09T07:03:01;21.70;99.30
7216;DHT22;3649;48.798;9.798;2022-07-09T07:05:29;21.90;99.10
7216;DHT22;3649;48.798;9.798;2022-07-09T07:07:57;22.10;98.90
7216;DHT22;3649;48.798;9.798;2022-07-09T07:10:26;22.30;98.80
7216;DHT22;3649;48.798;9.798;2022-07-09T07:12:54;22.50;98.50
7216;DHT22;3649;48.798;9.798;2022-07-09T07:15:22;22.60;98.40
7216;DHT22;3649;48.798;9.798;2022-07-09T07:17:49;22.70;98.30
7216;DHT22;3649;48.798;9.798;2022-07-09T07:20:23;22.80;98.30
7216;DHT22;3649;48.798;9.798;2022-07-09T07:22:52;23.00;98.30
7216;DHT22;3649;48.798;9.798;2022-07-09T07:25:18;23.10;98.10
7216;DHT22;3649;48.798;9.798;2022-07-09T07:27:45;23.20;98.00
7216;DHT22;3649;48.798;9.798;2022-07-09T07:30:12;23.30;97.80
7216;DHT22;3649;48.798;9.798;2022-07-09T07:32:39;23.30;97.70
7216;DHT22;3649;48.798;9.798;2022-07-09T07:35:06;23.40;97.60
7216;DHT22;3649;48.798;9.798;2022-07-09T07:37:33;23.50;97.40
7216;DHT22;3649;48.798;9.798;2022-07-09T07:40:00;23.60;97.10
7216;DHT22;3649;48.798;9.798;2022-07-09T07:42:26;23.70;97.00
7216;DHT22;3649;48.798;9.798;2022-07-09T07:44:54;23.70;96.90
7216;DHT22;3649;48.798;9.798;2022-07-09T07:47:20;23.80;96.90
7216;DHT22;3649;48.798;9.798;2022-07-09T07:49:48;23.90;96.70
7216;DHT22;3649;48.798;9.798;2022-07-09T07:52:15;24.00;96.70
7216;DHT22;3649;48.798;9.798;2022-07-09T07:54:42;24.00;96.90
7216;DHT22;3649;48.798;9.798;2022-07-09T07:57:09;24.90;97.40
7216;DHT22;3649;48.798;9.798;2022-07-09T07:59:36;24.00;96.90
7216;DHT22;3649;48.798;9.798;2022-07-09T08:02:03;23.90;97.00
7216;DHT22;3649;48.798;9.798;2022-07-09T08:04:30;23.80;97.00
7216;DHT22;3649;48.798;9.798;2022-07-09T08:06:58;23.70;97.20
7216;DHT22;3649;48.798;9.798;2022-07-09T08:09:25;23.60;97.40
7216;DHT22;3649;48.798;9.798;2022-07-09T08:11:52;23.60;97.40
7216;DHT22;3649;48.798;9.798;2022-07-09T08:14:19;23.50;97.50
7216;DHT22;3649;48.798;9.798;2022-07-09T08:16:46;23.40;97.60
7216;DHT22;3649;48.798;9.798;2022-07-09T08:19:13;23.40;97.70
7216;DHT22;3649;48.798;9.798;2022-07-09T08:21:42;23.40;97.80
7216;DHT22;3649;48.798;9.798;2022-07-09T08:24:09;23.50;97.80
7216;DHT22;3649;48.798;9.798;2022-07-09T08:26:36;23.60;97.70
7216;DHT22;3649;48.798;9.798;2022-07-09T08:29:03;23.70;97.60
7216;DHT22;3649;48.798;9.798;2022-07-09T08:31:30;23.80;97.50
7216;DHT22;3649;48.798;9.798;2022-07-09T08:33:57;24.00;97.40
7216;DHT22;3649;48.798;9.798;2022-07-09T08:36:24;24.10;97.30
7216;DHT22;3649;48.798;9.798;2022-07-09T08:38:51;24.10;97.20
7216;DHT22;3649;48.798;9.798;2022-07-09T08:41:18;24.20;97.20
7216;DHT22;3649;48.798;9.798;2022-07-09T08:43:53;24.30;97.30
7216;DHT22;3649;48.798;9.798;2022-07-09T08:46:21;24.30;97.30
7216;DHT22;3649;48.798;9.798;2022-07-09T08:48:48;24.40;97.10
7216;DHT22;3649;48.798;9.798;2022-07-09T08:51:15;24.40;97.10
7216;DHT22;3649;48.798;9.798;2022-07-09T08:53:44;24.40;97.10
7216;DHT22;3649;48.798;9.798;2022-07-09T08:56:11;24.40;97.20
7216;DHT22;3649;48.798;9.798;2022-07-09T08:58:38;24.40;97.30
7216;DHT22;3649;48.798;9.798;2022-07-09T09:01:05;24.40;97.20
7216;DHT22;3649;48.798;9.798;2022-07-09T09:03:33;24.50;97.00
7216;DHT22;3649;48.798;9.798;2022-07-09T09:06:06;24.50;97.00
7216;DHT22;3649;48.798;9.798;2022-07-09T09:08:41;24.50;96.80
7216;DHT22;3649;48.798;9.798;2022-07-09T09:13:42;24.60;96.90
7216;DHT22;3649;48.798;9.798;2022-07-09T09:16:11;24.60;96.80
7216;DHT22;3649;48.798;9.798;2022-07-09T09:18:41;24.70;96.80
7216;DHT22;3649;48.798;9.798;2022-07-09T09:21:09;24.70;96.40
7216;DHT22;3649;48.798;9.798;2022-07-09T09:23:42;24.70;96.20
7216;DHT22;3649;48.798;9.798;2022-07-09T09:31:27;24.70;96.20
7216;DHT22;3649;48.798;9.798;2022-07-09T09:33:56;24.70;96.10
7216;DHT22;3649;48.798;9.798;2022-07-09T09:41:43;24.70;95.90
7216;DHT22;3649;48.798;9.798;2022-07-09T09:44:14;24.70;95.70
7216;DHT22;3649;48.798;9.798;2022-07-09T09:46:42;24.70;95.80
7216;DHT22;3649;48.798;9.798;2022-07-09T09:49:11;24.60;95.90
7216;DHT22;3649;48.798;9.798;2022-07-09T09:51:51;24.60;95.70
7216;DHT22;3649;48.798;9.798;2022-07-09T09:54:23;24.70;95.90
7216;DHT22;3649;48.798;9.798;2022-07-09T09:56:50;24.70;95.70
7216;DHT22;3649;48.798;9.798;2022-07-09T09:59:17;24.70;95.90
7216;DHT22;3649;48.798;9.798;2022-07-09T10:01:44;24.60;95.70
7216;DHT22;3649;48.798;9.798;2022-07-09T10:04:13;24.60;95.80
7216;DHT22;3649;48.798;9.798;2022-07-09T10:06:40;24.70;95.90
7216;DHT22;3649;48.798;9.798;2022-07-09T10:09:10;24.70;95.90
7216;DHT22;3649;48.798;9.798;2022-07-09T10:11:46;24.80;96.00
7216;DHT22;3649;48.798;9.798;2022-07-09T10:16:43;24.80;95.20
7216;DHT22;3649;48.798;9.798;2022-07-09T10:19:32;24.80;94.00
7216;DHT22;3649;48.798;9.798;2022-07-09T10:22:00;24.80;93.90
7216;DHT22;3649;48.798;9.798;2022-07-09T10:24:31;24.80;94.00
7216;DHT22;3649;48.798;9.798;2022-07-09T10:27:09;24.90;94.40
7216;DHT22;3649;48.798;9.798;2022-07-09T10:29:56;24.80;94.30
7216;DHT22;3649;48.798;9.798;2022-07-09T10:32:30;24.90;94.00
7216;DHT22;3649;48.798;9.798;2022-07-09T10:35:05;24.90;93.90
7216;DHT22;3649;48.798;9.798;2022-07-09T10:37:42;24.90;94.30
7216;DHT22;3649;48.798;9.798;2022-07-09T10:40:14;24.80;94.30
7216;DHT22;3649;48.798;9.798;2022-07-09T10:42:43;24.90;94.00
7216;DHT22;3649;48.798;9.798;2022-07-09T10:45:27;24.80;94.30
7216;DHT22;3649;48.798;9.798;2022-07-09T10:47:58;24.80;94.60
7216;DHT22;3649;48.798;9.798;2022-07-09T10:50:28;24.80;94.20
7216;DHT22;3649;48.798;9.798;2022-07-09T10:52:56;24.80;94.30
7216;DHT22;3649;48.798;9.798;2022-07-09T10:55:25;24.80;93.90
7216;DHT22;3649;48.798;9.798;2022-07-09T10:57:52;24.80;93.90
7216;DHT22;3649;48.798;9.798;2022-07-09T11:00:23;24.80;94.10
7216;DHT22;3649;48.798;9.798;2022-07-09T11:02:52;24.80;94.20
7216;DHT22;3649;48.798;9.798;2022-07-09T11:05:19;24.80;94.40
7216;DHT22;3649;48.798;9.798;2022-07-09T11:10:29;24.80;94.10
7216;DHT22;3649;48.798;9.798;2022-07-09T11:12:58;24.80;94.20
7216;DHT22;3649;48.798;9.798;2022-07-09T11:15:29;24.80;93.80
7216;DHT22;3649;48.798;9.798;2022-07-09T11:17:59;24.90;93.80
7216;DHT22;3649;48.798;9.798;2022-07-09T11:20:27;24.90;94.10
7216;DHT22;3649;48.798;9.798;2022-07-09T11:22:55;24.90;94.10
7216;DHT22;3649;48.798;9.798;2022-07-09T11:25:27;24.90;94.20
7216;DHT22;3649;48.798;9.798;2022-07-09T11:27:56;24.90;94.40
7216;DHT22;3649;48.798;9.798;2022-07-09T11:30:23;24.90;94.50
7216;DHT22;3649;48.798;9.798;2022-07-09T11:32:51;24.80;94.10
7216;DHT22;3649;48.798;9.798;2022-07-09T11:35:29;24.90;94.10
7216;DHT22;3649;48.798;9.798;2022-07-09T11:37:59;24.90;94.30
7216;DHT22;3649;48.798;9.798;2022-07-09T11:40:26;24.90;94.40
7216;DHT22;3649;48.798;9.798;2022-07-09T11:42:54;25.00;94.50
7216;DHT22;3649;48.798;9.798;2022-07-09T11:45:29;24.20;94.10
7216;DHT22;3649;48.798;9.798;2022-07-09T11:48:07;24.90;94.80
7216;DHT22;3649;48.798;9.798;2022-07-09T11:50:41;24.90;94.70
7216;DHT22;3649;48.798;9.798;2022-07-09T11:53:22;24.90;94.90
7216;DHT22;3649;48.798;9.798;2022-07-09T11:56:02;24.90;95.00
7216;DHT22;3649;48.798;9.798;2022-07-09T11:58:30;24.80;95.10
7216;DHT22;3649;48.798;9.798;2022-07-09T12:00:57;24.80;95.20
7216;DHT22;3649;48.798;9.798;2022-07-09T12:03:27;24.90;94.40
7216;DHT22;3649;48.798;9.798;2022-07-09T12:05:55;25.00;94.30
7216;DHT22;3649;48.798;9.798;2022-07-09T12:08:31;25.00;94.60
7216;DHT22;3649;48.798;9.798;2022-07-09T12:10:59;25.10;94.40
7216;DHT22;3649;48.798;9.798;2022-07-09T12:13:27;25.00;94.70
7216;DHT22;3649;48.798;9.798;2022-07-09T12:15:54;25.00;94.50
7216;DHT22;3649;48.798;9.798;2022-07-09T12:18:21;25.00;94.40
7216;DHT22;3649;48.798;9.798;2022-07-09T12:20:48;25.00;94.60
7216;DHT22;3649;48.798;9.798;2022-07-09T12:23:15;25.00;94.80
7216;DHT22;3649;48.798;9.798;2022-07-09T12:25:42;25.00;94.80
7216;DHT22;3649;48.798;9.798;2022-07-09T12:28:09;25.00;94.80
7216;DHT22;3649;48.798;9.798;2022-07-09T12:30:35;25.00;93.80
7216;DHT22;3649;48.798;9.798;2022-07-09T12:33:02;25.00;93.90
7216;DHT22;3649;48.798;9.798;2022-07-09T12:35:30;25.00;93.70
7216;DHT22;3649;48.798;9.798;2022-07-09T12:37:57;25.00;93.90
7216;DHT22;3649;48.798;9.798;2022-07-09T12:40:24;25.00;94.30
7216;DHT22;3649;48.798;9.798;2022-07-09T12:42:51;24.90;94.50
7216;DHT22;3649;48.798;9.798;2022-07-09T12:45:18;25.00;93.20
7216;DHT22;3649;48.798;9.798;2022-07-09T12:47:45;25.10;93.10
7216;DHT22;3649;48.798;9.798;2022-07-09T12:50:12;25.10;93.30
7216;DHT22;3649;48.798;9.798;2022-07-09T12:52:39;25.20;92.80
7216;DHT22;3649;48.798;9.798;2022-07-09T12:55:06;25.20;92.60
7216;DHT22;3649;48.798;9.798;2022-07-09T12:57:34;25.20;92.90
7216;DHT22;3649;48.798;9.798;2022-07-09T13:00:02;25.20;93.10
7216;DHT22;3649;48.798;9.798;2022-07-09T13:02:29;25.20;93.00
7216;DHT22;3649;48.798;9.798;2022-07-09T13:04:56;25.20;93.30
7216;DHT22;3649;48.798;9.798;2022-07-09T13:07:23;25.10;93.70
7216;DHT22;3649;48.798;9.798;2022-07-09T13:09:50;25.10;93.80
7216;DHT22;3649;48.798;9.798;2022-07-09T13:12:18;25.20;93.40
7216;DHT22;3649;48.798;9.798;2022-07-09T13:14:45;25.30;92.90
7216;DHT22;3649;48.798;9.798;2022-07-09T13:17:12;25.50;92.80
7216;DHT22;3649;48.798;9.798;2022-07-09T13:19:58;25.50;93.00
7216;DHT22;3649;48.798;9.798;2022-07-09T13:22:25;25.60;92.90
7216;DHT22;3649;48.798;9.798;2022-07-09T13:24:51;25.70;92.80
7216;DHT22;3649;48.798;9.798;2022-07-09T13:27:18;25.80;93.00
7216;DHT22;3649;48.798;9.798;2022-07-09T13:29:46;25.80;93.00
7216;DHT22;3649;48.798;9.798;2022-07-09T13:32:14;25.90;93.00
7216;DHT22;3649;48.798;9.798;2022-07-09T13:34:48;25.90;93.00
7216;DHT22;3649;48.798;9.798;2022-07-09T13:37:15;25.90;93.60
7216;DHT22;3649;48.798;9.798;2022-07-09T13:39:42;25.90;93.40
7216;DHT22;3649;48.798;9.798;2022-07-09T13:42:09;25.90;93.60
7216;DHT22;3649;48.798;9.798;2022-07-09T13:44:36;25.90;93.60
7216;DHT22;3649;48.798;9.798;2022-07-09T13:47:03;26.00;93.70
7216;DHT22;3649;48.798;9.798;2022-07-09T13:49:30;26.10;93.70
7216;DHT22;3649;48.798;9.798;2022-07-09T13:51:56;26.10;93.60
7216;DHT22;3649;48.798;9.798;2022-07-09T13:54:26;26.10;93.60
7216;DHT22;3649;48.798;9.798;2022-07-09T13:56:55;26.00;93.70
7216;DHT22;3649;48.798;9.798;2022-07-09T13:59:22;26.00;92.50
7216;DHT22;3649;48.798;9.798;2022-07-09T14:01:49;26.10;92.10
7216;DHT22;3649;48.798;9.798;2022-07-09T14:04:16;26.10;92.20
7216;DHT22;3649;48.798;9.798;2022-07-09T14:06:43;26.10;92.30
7216;DHT22;3649;48.798;9.798;2022-07-09T14:09:13;26.00;92.70
7216;DHT22;3649;48.798;9.798;2022-07-09T14:11:40;26.00;92.40
7216;DHT22;3649;48.798;9.798;2022-07-09T14:14:07;25.90;92.40
7216;DHT22;3649;48.798;9.798;2022-07-09T14:16:34;25.90;92.40
7216;DHT22;3649;48.798;9.798;2022-07-09T14:19:01;26.00;92.60
7216;DHT22;3649;48.798;9.798;2022-07-09T14:21:28;26.00;92.60
7216;DHT22;3649;48.798;9.798;2022-07-09T14:23:55;26.00;92.70
7216;DHT22;3649;48.798;9.798;2022-07-09T14:26:22;25.90;92.90
7216;DHT22;3649;48.798;9.798;2022-07-09T14:28:50;25.90;92.80
7216;DHT22;3649;48.798;9.798;2022-07-09T14:31:17;25.90;92.70
7216;DHT22;3649;48.798;9.798;2022-07-09T14:33:44;25.90;92.60
7216;DHT22;3649;48.798;9.798;2022-07-09T14:36:11;25.90;92.80
7216;DHT22;3649;48.798;9.798;2022-07-09T14:38:38;25.90;92.70
7216;DHT22;3649;48.798;9.798;2022-07-09T14:41:06;25.90;92.70
7216;DHT22;3649;48.798;9.798;2022-07-09T14:43:33;25.90;92.90
7216;DHT22;3649;48.798;9.798;2022-07-09T14:46:00;25.90;93.10
7216;DHT22;3649;48.798;9.798;2022-07-09T14:48:27;25.90;93.20
7216;DHT22;3649;48.798;9.798;2022-07-09T14:50:54;25.90;93.00
7216;DHT22;3649;48.798;9.798;2022-07-09T14:53:20;25.80;93.10
7216;DHT22;3649;48.798;9.798;2022-07-09T14:55:47;25.80;93.20
7216;DHT22;3649;48.798;9.798;2022-07-09T14:58:14;25.80;93.20
7216;DHT22;3649;48.798;9.798;2022-07-09T15:00:42;25.70;93.20
7216;DHT22;3649;48.798;9.798;2022-07-09T15:03:09;25.70;93.40
7216;DHT22;3649;48.798;9.798;2022-07-09T15:05:37;25.70;93.40
7216;DHT22;3649;48.798;9.798;2022-07-09T15:08:10;25.80;92.90
7216;DHT22;3649;48.798;9.798;2022-07-09T15:10:37;25.90;92.80
7216;DHT22;3649;48.798;9.798;2022-07-09T15:13:05;25.90;92.80
7216;DHT22;3649;48.798;9.798;2022-07-09T15:15:36;25.90;92.90
7216;DHT22;3649;48.798;9.798;2022-07-09T15:18:03;25.90;92.60
7216;DHT22;3649;48.798;9.798;2022-07-09T15:20:30;26.00;92.40
7216;DHT22;3649;48.798;9.798;2022-07-09T15:22:59;26.10;92.00
7216;DHT22;3649;48.798;9.798;2022-07-09T15:25:27;26.10;92.50
7216;DHT22;3649;48.798;9.798;2022-07-09T15:27:55;26.10;92.50
7216;DHT22;3649;48.798;9.798;2022-07-09T15:30:23;26.10;92.70
7216;DHT22;3649;48.798;9.798;2022-07-09T15:32:50;26.00;92.80
7216;DHT22;3649;48.798;9.798;2022-07-09T15:35:17;26.00;92.60
7216;DHT22;3649;48.798;9.798;2022-07-09T15:37:44;26.00;92.60
7216;DHT22;3649;48.798;9.798;2022-07-09T15:40:11;26.00;92.80
7216;DHT22;3649;48.798;9.798;2022-07-09T15:42:40;25.90;92.70
7216;DHT22;3649;48.798;9.798;2022-07-09T15:45:09;25.90;93.10
7216;DHT22;3649;48.798;9.798;2022-07-09T15:47:37;25.80;93.00
7216;DHT22;3649;48.798;9.798;2022-07-09T15:50:11;25.70;93.30
7216;DHT22;3649;48.798;9.798;2022-07-09T15:52:38;25.70;93.20
7216;DHT22;3649;48.798;9.798;2022-07-09T15:55:07;25.70;93.50
7216;DHT22;3649;48.798;9.798;2022-07-09T15:57:34;25.60;93.50
7216;DHT22;3649;48.798;9.798;2022-07-09T16:00:03;25.60;93.90
7216;DHT22;3649;48.798;9.798;2022-07-09T16:02:31;25.70;93.80
7216;DHT22;3649;48.798;9.798;2022-07-09T16:05:00;25.60;93.90
7216;DHT22;3649;48.798;9.798;2022-07-09T16:07:27;25.60;94.10
7216;DHT22;3649;48.798;9.798;2022-07-09T16:09:54;25.60;94.30
7216;DHT22;3649;48.798;9.798;2022-07-09T16:12:21;25.60;94.40
7216;DHT22;3649;48.798;9.798;2022-07-09T16:15:06;25.60;94.70
7216;DHT22;3649;48.798;9.798;2022-07-09T16:17:33;25.50;94.80
7216;DHT22;3649;48.798;9.798;2022-07-09T16:20:01;25.50;94.70
7216;DHT22;3649;48.798;9.798;2022-07-09T16:22:28;25.50;94.70
7216;DHT22;3649;48.798;9.798;2022-07-09T16:24:55;25.50;94.60